Jaipur, India
Current Conditions -  °F | °C
As of 7:30 PM on Wednesday 26 Nov 2014 (Local Time) from VIJP Reporting Station
Haze Haze  
Wind Chill: 72°   Ceiling: Unl
Heat Index: 72°   Visibility: 1.2mi
Dew Point: 36°   Wind: 3mph
Humidity: 27%   Direction: NA
Pressure: 29.88"   Gusts: NA
Location:  26.91°N, 75.8°E
Report Text: VIJP 261430Z VRB03KT 2000 HZ NSC 22/02 Q1012 NOSIG
Loading
Personal Weather Stations






























Interactive Weather Map New forecast layout! Learn more

10-Day Weather Forecast

Advertisements
Track Severe Weather on mobile